createdAt,value
2023-04-16T00:01:39.923Z,15.47
2023-04-16T00:04:08.871Z,18.00
2023-04-16T00:06:36.608Z,16.77
2023-04-16T00:09:04.603Z,17.93
2023-04-16T00:11:32.368Z,18.20
2023-04-16T00:14:00.266Z,18.20
2023-04-16T00:16:28.837Z,18.23
2023-04-16T00:18:56.536Z,19.67
2023-04-16T00:21:24.445Z,19.83
2023-04-16T00:23:52.190Z,20.80
2023-04-16T00:26:20.866Z,19.53
2023-04-16T00:28:48.712Z,21.60
2023-04-16T00:31:16.613Z,20.17
2023-04-16T00:33:44.347Z,19.97
2023-04-16T00:36:11.980Z,18.40
2023-04-16T00:38:39.691Z,18.80
2023-04-16T00:41:07.439Z,19.33
2023-04-16T00:43:35.111Z,20.17
2023-04-16T00:46:08.401Z,19.33
2023-04-16T00:48:40.709Z,18.13
2023-04-16T00:51:10.188Z,18.97
2023-04-16T00:53:38.805Z,20.00
2023-04-16T00:56:08.073Z,18.07
2023-04-16T00:58:36.408Z,19.10
2023-04-16T01:01:04.555Z,20.07
2023-04-16T01:03:47.155Z,18.30
2023-04-16T01:06:18.560Z,18.77
2023-04-16T01:08:48.569Z,18.20
2023-04-16T01:11:16.872Z,20.43
2023-04-16T01:13:44.684Z,21.50
2023-04-16T01:16:13.593Z,20.27
2023-04-16T01:18:41.585Z,18.10
2023-04-16T01:21:10.761Z,20.43
2023-04-16T01:23:38.658Z,18.90
2023-04-16T01:26:06.592Z,20.17
2023-04-16T01:28:34.453Z,19.97
2023-04-16T01:31:02.616Z,20.63
2023-04-16T01:33:40.476Z,20.83
2023-04-16T01:36:08.606Z,20.70
2023-04-16T01:38:36.915Z,21.57
2023-04-16T01:41:04.816Z,22.87
2023-04-16T01:43:33.194Z,22.37
2023-04-16T01:46:29.545Z,20.57
2023-04-16T01:49:03.037Z,20.67
2023-04-16T01:51:32.295Z,21.47
2023-04-16T01:54:01.380Z,22.10
2023-04-16T01:56:29.231Z,20.47
2023-04-16T01:58:56.976Z,20.37
2023-04-16T02:01:27.340Z,21.90
2023-04-16T02:03:58.535Z,19.07
2023-04-16T02:06:27.597Z,21.30
2023-04-16T02:08:55.311Z,18.70
2023-04-16T02:11:23.400Z,21.10
2023-04-16T02:13:51.698Z,21.90
2023-04-16T02:16:20.256Z,19.40
2023-04-16T02:18:53.888Z,19.57
2023-04-16T02:21:23.933Z,18.13
2023-04-16T02:23:52.022Z,19.60
2023-04-16T02:26:26.640Z,20.90
2023-04-16T02:28:56.793Z,20.90
2023-04-16T02:31:30.748Z,20.63
2023-04-16T02:33:59.661Z,20.67
2023-04-16T02:36:27.810Z,20.60
2023-04-16T02:38:57.002Z,22.50
2023-04-16T02:41:25.064Z,21.20
2023-04-16T02:43:53.008Z,24.40
2023-04-16T02:46:20.769Z,21.77
2023-04-16T02:48:48.491Z,22.03
2023-04-16T02:51:16.264Z,22.43
2023-04-16T02:53:46.154Z,24.17
2023-04-16T02:56:14.723Z,22.70
2023-04-16T02:58:42.347Z,21.77
2023-04-16T03:01:10.210Z,21.70
2023-04-16T03:03:38.169Z,24.40
2023-04-16T03:06:06.754Z,22.60
2023-04-16T03:08:34.414Z,22.83
2023-04-16T03:11:02.390Z,21.80
2023-04-16T03:13:30.223Z,23.97
2023-04-16T03:15:57.879Z,25.37
2023-04-16T03:18:25.874Z,23.13
2023-04-16T03:20:54.515Z,23.50
2023-04-16T03:23:22.404Z,24.47
2023-04-16T03:25:51.211Z,25.17
2023-04-16T03:28:19.619Z,23.07
2023-04-16T03:30:56.437Z,25.10
2023-04-16T03:33:24.289Z,25.67
2023-04-16T03:35:58.586Z,26.00
2023-04-16T03:38:29.617Z,25.20
2023-04-16T03:40:59.475Z,25.13
2023-04-16T03:43:28.188Z,22.97
2023-04-16T03:45:55.937Z,24.87
2023-04-16T03:48:24.399Z,23.00
2023-04-16T03:50:54.651Z,25.30
2023-04-16T03:53:22.255Z,23.60
2023-04-16T03:55:53.491Z,27.20
2023-04-16T03:58:22.381Z,27.23
2023-04-16T04:00:50.126Z,27.00
2023-04-16T04:03:18.988Z,30.23
2023-04-16T04:05:49.539Z,28.23
2023-04-16T04:08:24.381Z,27.30
2023-04-16T04:10:52.746Z,27.33
2023-04-16T04:13:22.207Z,29.53
2023-04-16T04:15:51.854Z,27.77
2023-04-16T04:18:20.921Z,27.10
2023-04-16T04:20:48.784Z,30.40
2023-04-16T04:23:19.352Z,27.23
2023-04-16T04:25:48.331Z,30.53
2023-04-16T04:28:16.087Z,29.07
2023-04-16T04:30:43.854Z,30.43
2023-04-16T04:33:11.801Z,29.60
2023-04-16T04:35:39.841Z,29.00
2023-04-16T04:38:10.180Z,29.20
2023-04-16T04:40:37.922Z,31.30
2023-04-16T04:43:05.677Z,32.40
2023-04-16T04:45:34.196Z,33.20
2023-04-16T04:48:01.843Z,30.60
2023-04-16T04:50:30.662Z,29.70
2023-04-16T04:52:58.851Z,28.77
2023-04-16T04:55:26.591Z,27.97
2023-04-16T04:57:54.332Z,27.13
2023-04-16T05:00:22.344Z,29.70
2023-04-16T05:02:54.809Z,26.40
2023-04-16T05:05:22.963Z,27.37
2023-04-16T05:07:50.731Z,28.63
2023-04-16T05:10:18.446Z,28.30
2023-04-16T05:12:50.125Z,26.27
2023-04-16T05:15:18.039Z,27.40
2023-04-16T05:17:46.096Z,26.57
2023-04-16T05:20:14.052Z,26.97
2023-04-16T05:22:41.705Z,28.50
2023-04-16T05:25:10.501Z,25.27
2023-04-16T05:27:38.595Z,25.40
2023-04-16T05:30:08.187Z,26.57
2023-04-16T05:32:36.983Z,23.70
2023-04-16T05:35:05.730Z,24.50
2023-04-16T05:37:33.381Z,27.00
2023-04-16T05:40:01.183Z,26.80
2023-04-16T05:42:28.921Z,25.23
2023-04-16T05:44:56.643Z,25.60
2023-04-16T05:47:25.448Z,24.80
2023-04-16T05:49:53.203Z,24.80
2023-04-16T05:52:20.865Z,25.47
2023-04-16T05:54:48.625Z,25.13
2023-04-16T05:57:16.414Z,26.00
2023-04-16T05:59:44.549Z,26.03
2023-04-16T06:02:12.468Z,24.20
2023-04-16T06:04:40.152Z,26.10
2023-04-16T06:07:07.915Z,24.80
2023-04-16T06:09:36.145Z,22.37
2023-04-16T06:12:04.778Z,26.93
2023-04-16T06:14:32.474Z,23.93
2023-04-16T06:17:00.346Z,26.63
2023-04-16T06:19:28.021Z,26.47
2023-04-16T06:21:55.956Z,25.20
2023-04-16T06:24:23.817Z,27.20
2023-04-16T06:26:51.464Z,26.27
2023-04-16T06:29:19.063Z,26.50
2023-04-16T06:31:48.149Z,26.60
2023-04-16T06:34:16.753Z,26.87
2023-04-16T06:36:44.533Z,24.80
2023-04-16T06:39:12.338Z,25.30
2023-04-16T06:41:40.465Z,25.70
2023-04-16T06:44:08.162Z,28.00
2023-04-16T06:46:36.078Z,28.47
2023-04-16T06:49:03.739Z,28.93
2023-04-16T06:51:31.657Z,27.80
2023-04-16T06:53:59.771Z,27.63
2023-04-16T06:56:27.513Z,27.90
2023-04-16T06:58:57.862Z,28.23
2023-04-16T07:01:26.008Z,28.60
2023-04-16T07:03:54.780Z,27.43
2023-04-16T07:06:22.808Z,27.10
2023-04-16T07:08:50.610Z,28.63
2023-04-16T07:11:19.548Z,28.40
2023-04-16T07:13:47.428Z,28.40
2023-04-16T07:16:15.276Z,27.53
2023-04-16T07:18:43.022Z,29.30
2023-04-16T07:21:11.039Z,27.40
2023-04-16T07:23:38.701Z,28.80
2023-04-16T07:26:06.680Z,27.27
2023-04-16T07:28:34.397Z,26.67
2023-04-16T07:31:02.185Z,28.33
2023-04-16T07:33:29.924Z,27.27
2023-04-16T07:35:57.591Z,26.37
2023-04-16T07:38:25.415Z,26.47
2023-04-16T07:40:53.079Z,24.60
2023-04-16T07:43:20.834Z,26.60
2023-04-16T07:45:49.263Z,25.70
2023-04-16T07:48:16.900Z,27.00
2023-04-16T07:50:44.837Z,26.33
2023-04-16T07:53:12.665Z,27.50
2023-04-16T07:55:40.451Z,27.37
2023-04-16T07:58:09.675Z,26.00
2023-04-16T08:00:37.923Z,24.93
2023-04-16T08:03:05.934Z,28.20
2023-04-16T08:05:34.094Z,24.70
2023-04-16T08:08:01.925Z,22.03
2023-04-16T08:10:29.860Z,25.00
2023-04-16T08:13:00.224Z,23.10
2023-04-16T08:15:28.325Z,24.07
2023-04-16T08:17:56.164Z,22.23
2023-04-16T08:20:24.390Z,23.43
2023-04-16T08:22:55.046Z,21.50
2023-04-16T08:25:24.765Z,24.33
2023-04-16T08:27:52.482Z,21.73
2023-04-16T08:30:22.254Z,23.73
2023-04-16T08:32:50.799Z,22.60
2023-04-16T08:35:18.592Z,23.27
2023-04-16T08:37:46.254Z,20.90
2023-04-16T08:40:14.156Z,22.03
2023-04-16T08:42:54.133Z,22.43
2023-04-16T08:45:21.977Z,19.60
2023-04-16T08:47:53.253Z,19.07
2023-04-16T08:50:27.241Z,21.40
2023-04-16T08:53:08.405Z,20.57
2023-04-16T08:55:50.702Z,18.30
2023-04-16T08:58:23.533Z,18.17
2023-04-16T09:00:52.289Z,19.60
2023-04-16T09:03:21.724Z,20.30
2023-04-16T09:05:51.669Z,21.47
2023-04-16T09:08:21.416Z,22.10
2023-04-16T09:10:50.981Z,22.63
2023-04-16T09:13:20.704Z,21.17
2023-04-16T09:15:53.529Z,23.37
2023-04-16T09:18:22.004Z,22.83
2023-04-16T09:20:52.522Z,24.00
2023-04-16T09:23:20.382Z,22.47
2023-04-16T09:25:48.165Z,21.00
2023-04-16T09:28:46.640Z,19.70
2023-04-16T09:31:19.856Z,19.60
2023-04-16T09:34:11.068Z,22.43
2023-04-16T09:36:38.855Z,20.60
2023-04-16T09:39:06.580Z,20.80
2023-04-16T09:41:39.799Z,19.33
2023-04-16T09:44:07.902Z,20.07
2023-04-16T09:46:43.791Z,20.43
2023-04-16T09:49:18.793Z,21.30
2023-04-16T09:51:52.928Z,22.17
2023-04-16T09:54:21.263Z,20.07
2023-04-16T09:56:49.110Z,18.60
2023-04-16T09:59:24.621Z,21.00
2023-04-16T10:02:15.713Z,20.50
2023-04-16T10:04:54.248Z,20.57
2023-04-16T10:07:22.739Z,20.07
2023-04-16T10:09:52.756Z,18.60
2023-04-16T10:12:21.725Z,20.70
2023-04-16T10:14:50.429Z,18.07
2023-04-16T10:17:20.040Z,18.70
2023-04-16T10:19:48.968Z,18.97
2023-04-16T10:22:16.847Z,20.27
2023-04-16T10:24:47.943Z,18.30
2023-04-16T10:27:17.344Z,19.47
2023-04-16T10:29:47.775Z,19.60
2023-04-16T10:32:20.945Z,18.47
2023-04-16T10:34:49.087Z,18.07
2023-04-16T10:37:18.818Z,17.67
2023-04-16T10:39:46.651Z,20.40
2023-04-16T10:42:14.468Z,18.70
2023-04-16T10:44:45.310Z,18.83
2023-04-16T10:47:14.830Z,18.40
2023-04-16T10:49:44.112Z,16.97
2023-04-16T10:52:17.499Z,17.47
2023-04-16T10:54:48.522Z,15.73
2023-04-16T10:57:20.912Z,16.63
2023-04-16T10:59:49.968Z,17.17
2023-04-16T11:02:19.753Z,17.90
2023-04-16T11:04:50.218Z,18.47
2023-04-16T11:07:36.172Z,18.17
2023-04-16T11:10:13.718Z,18.03
2023-04-16T11:12:48.695Z,18.23
2023-04-16T11:15:22.244Z,15.70
2023-04-16T11:17:52.886Z,14.83
2023-04-16T11:20:28.559Z,15.77
2023-04-16T11:22:58.746Z,14.33
2023-04-16T11:25:31.277Z,16.33
2023-04-16T11:28:00.075Z,17.40
2023-04-16T11:30:40.084Z,17.83
2023-04-16T11:33:13.694Z,16.50
2023-04-16T11:35:44.017Z,17.53
2023-04-16T11:38:13.784Z,17.30
2023-04-16T11:40:44.843Z,16.50
2023-04-16T11:43:18.575Z,15.83
2023-04-16T11:46:20.033Z,17.50
2023-04-16T11:48:56.178Z,16.00
2023-04-16T11:51:25.254Z,15.80
2023-04-16T11:53:55.201Z,17.00
2023-04-16T11:56:32.530Z,15.30
2023-04-16T11:59:23.265Z,15.90
2023-04-16T12:01:58.194Z,14.37
2023-04-16T12:04:29.518Z,13.30
2023-04-16T12:07:13.972Z,14.40
2023-04-16T12:09:44.326Z,14.07
2023-04-16T12:12:32.241Z,15.20
2023-04-16T12:15:05.525Z,13.50
2023-04-16T12:17:36.238Z,14.47
2023-04-16T12:20:15.915Z,13.47
2023-04-16T12:22:52.901Z,17.30
2023-04-16T12:25:21.223Z,18.13
2023-04-16T12:27:56.093Z,18.63
2023-04-16T12:30:26.964Z,19.67
2023-04-16T12:33:18.037Z,18.40
2023-04-16T12:35:49.325Z,20.57
2023-04-16T12:38:17.504Z,19.90
2023-04-16T12:40:46.011Z,19.40
2023-04-16T12:43:14.172Z,18.83
2023-04-16T12:45:42.392Z,18.70
2023-04-16T12:48:10.483Z,19.23
2023-04-16T12:50:39.782Z,19.20
2023-04-16T12:53:07.458Z,17.40
2023-04-16T12:55:35.623Z,17.47
2023-04-16T12:58:03.358Z,18.23
2023-04-16T13:00:31.086Z,19.40
2023-04-16T13:02:58.845Z,18.23
2023-04-16T13:05:27.251Z,18.30
2023-04-16T13:07:55.211Z,19.20
2023-04-16T13:10:28.461Z,19.63
2023-04-16T13:12:56.463Z,19.77
2023-04-16T13:15:24.120Z,18.00
2023-04-16T13:17:51.965Z,18.33
2023-04-16T13:20:19.538Z,18.30
2023-04-16T13:22:47.235Z,18.40
2023-04-16T13:25:14.948Z,18.30
2023-04-16T13:27:42.691Z,16.77
2023-04-16T13:30:11.674Z,18.47
2023-04-16T13:32:40.686Z,19.20
2023-04-16T13:35:11.020Z,19.30
2023-04-16T13:37:39.156Z,18.97
2023-04-16T13:40:10.404Z,17.77
2023-04-16T13:42:38.134Z,19.53
2023-04-16T13:45:06.996Z,17.60
2023-04-16T13:47:34.965Z,18.83
2023-04-16T13:50:03.013Z,17.90
2023-04-16T13:52:30.791Z,16.60
2023-04-16T13:55:00.050Z,16.03
2023-04-16T13:57:29.652Z,17.77
2023-04-16T13:59:58.360Z,17.00
2023-04-16T14:02:26.787Z,16.60
2023-04-16T14:04:54.604Z,16.93
2023-04-16T14:07:25.817Z,16.07
2023-04-16T14:09:55.739Z,16.63
2023-04-16T14:12:24.386Z,15.57
2023-04-16T14:14:52.525Z,16.00
2023-04-16T14:17:21.993Z,15.57
2023-04-16T14:19:50.329Z,14.87
2023-04-16T14:22:18.571Z,16.10
2023-04-16T14:24:46.731Z,14.87
2023-04-16T14:27:14.549Z,15.00
2023-04-16T14:29:42.211Z,14.50
2023-04-16T14:32:09.963Z,16.27
2023-04-16T14:34:37.783Z,13.80
2023-04-16T14:37:06.727Z,15.47
2023-04-16T14:39:34.658Z,14.30
2023-04-16T14:42:03.245Z,13.90
2023-04-16T14:44:30.859Z,13.73
2023-04-16T14:46:58.776Z,12.73
2023-04-16T14:49:26.587Z,13.57
2023-04-16T14:51:54.441Z,13.57
2023-04-16T14:54:22.242Z,12.90
2023-04-16T14:56:50.820Z,13.60
2023-04-16T14:59:18.566Z,13.20
2023-04-16T15:01:47.403Z,12.37
2023-04-16T15:04:15.288Z,13.40
2023-04-16T15:06:46.484Z,13.40
2023-04-16T15:09:14.573Z,12.80
2023-04-16T15:11:42.487Z,11.50
2023-04-16T15:14:10.828Z,10.60
2023-04-16T15:16:38.913Z,12.03
2023-04-16T15:19:06.706Z,11.67
2023-04-16T15:21:34.605Z,11.00
2023-04-16T15:24:02.671Z,11.63
2023-04-16T15:26:31.343Z,11.50
2023-04-16T15:28:59.200Z,13.87
2023-04-16T15:31:27.361Z,13.27
2023-04-16T15:33:56.237Z,12.37
2023-04-16T15:36:24.261Z,11.40
2023-04-16T15:38:52.043Z,11.20
2023-04-16T15:41:19.899Z,11.37
2023-04-16T15:43:47.801Z,10.80
2023-04-16T15:46:15.739Z,12.03
2023-04-16T15:48:43.448Z,11.50
2023-04-16T15:51:12.096Z,11.73
2023-04-16T15:53:39.939Z,11.33
2023-04-16T15:56:07.798Z,11.93
2023-04-16T15:58:35.581Z,12.17
2023-04-16T16:01:03.257Z,11.17
2023-04-16T16:03:33.479Z,12.03
2023-04-16T16:06:04.164Z,13.10
2023-04-16T16:08:35.835Z,11.60
2023-04-16T16:11:04.446Z,11.60
2023-04-16T16:13:32.252Z,11.80
2023-04-16T16:15:59.928Z,12.80
2023-04-16T16:18:27.748Z,11.00
2023-04-16T16:20:58.820Z,13.10
2023-04-16T16:23:27.249Z,11.60
2023-04-16T16:25:55.464Z,12.60
2023-04-16T16:28:25.280Z,11.77
2023-04-16T16:30:54.869Z,11.03
2023-04-16T16:33:22.795Z,12.90
2023-04-16T16:35:50.622Z,12.97
2023-04-16T16:38:18.404Z,12.57
2023-04-16T16:40:46.359Z,12.70
2023-04-16T16:43:16.831Z,13.00
2023-04-16T16:45:44.947Z,13.67
2023-04-16T16:48:12.818Z,13.03
2023-04-16T16:50:40.706Z,16.10
2023-04-16T16:53:10.821Z,16.67
2023-04-16T16:55:43.689Z,18.80
2023-04-16T16:58:12.051Z,19.20
2023-04-16T17:00:39.917Z,19.57
2023-04-16T17:03:09.496Z,19.80
2023-04-16T17:05:37.847Z,21.53
2023-04-16T17:08:06.756Z,21.47
2023-04-16T17:10:36.245Z,21.80
2023-04-16T17:13:04.411Z,21.50
2023-04-16T17:15:32.563Z,21.63
2023-04-16T17:18:00.613Z,24.40
2023-04-16T17:20:28.577Z,21.90
2023-04-16T17:22:56.325Z,24.67
2023-04-16T17:25:24.166Z,21.10
2023-04-16T17:27:51.802Z,22.33
2023-04-16T17:30:20.090Z,23.60
2023-04-16T17:32:48.007Z,22.13
2023-04-16T17:35:16.051Z,22.03
2023-04-16T17:37:43.811Z,24.10
2023-04-16T17:40:14.567Z,21.83
2023-04-16T17:42:42.840Z,22.87
2023-04-16T17:45:11.973Z,21.43
2023-04-16T17:47:44.178Z,22.10
2023-04-16T17:50:13.040Z,21.40
2023-04-16T17:52:41.464Z,23.30
2023-04-16T17:55:11.753Z,22.10
2023-04-16T17:57:40.214Z,23.57
2023-04-16T18:00:12.605Z,20.00
2023-04-16T18:02:41.705Z,19.10
2023-04-16T18:05:10.592Z,20.80
2023-04-16T18:07:39.161Z,21.00
2023-04-16T18:10:09.447Z,20.07
2023-04-16T18:12:37.213Z,18.63
2023-04-16T18:15:10.519Z,17.73
2023-04-16T18:17:41.114Z,18.33
2023-04-16T18:20:21.778Z,19.17
2023-04-16T18:22:54.483Z,17.33
2023-04-16T18:25:34.986Z,16.50
2023-04-16T18:28:14.034Z,19.03
2023-04-16T18:30:58.986Z,18.20
2023-04-16T18:33:54.161Z,18.43
2023-04-16T18:36:40.492Z,19.30
2023-04-16T18:39:14.671Z,18.00
2023-04-16T18:41:53.554Z,19.60
2023-04-16T18:44:30.486Z,22.00
2023-04-16T18:47:07.742Z,20.27
2023-04-16T18:49:44.641Z,20.50
2023-04-16T18:52:21.256Z,20.83
2023-04-16T18:54:59.667Z,23.00
2023-04-16T18:57:35.324Z,19.63
2023-04-16T19:00:17.538Z,20.57
2023-04-16T19:02:48.558Z,18.40
2023-04-16T19:05:19.270Z,18.30
2023-04-16T19:07:49.152Z,17.47
2023-04-16T19:10:18.850Z,16.93
2023-04-16T19:12:48.011Z,17.60
2023-04-16T19:15:17.216Z,17.93
2023-04-16T19:17:47.768Z,17.93
2023-04-16T19:20:16.828Z,17.13
2023-04-16T19:22:45.822Z,16.07
2023-04-16T19:25:14.854Z,16.63
2023-04-16T19:27:43.857Z,16.60
2023-04-16T19:30:13.803Z,17.27
2023-04-16T19:32:42.691Z,14.43
2023-04-16T19:35:12.820Z,15.37
2023-04-16T19:37:43.096Z,16.20
2023-04-16T19:40:16.108Z,15.97
2023-04-16T19:42:47.017Z,15.67
2023-04-16T19:45:21.385Z,16.63
2023-04-16T19:47:51.621Z,15.90
2023-04-16T19:50:21.146Z,14.03
2023-04-16T19:52:49.786Z,15.07
2023-04-16T19:55:19.530Z,14.10
2023-04-16T19:57:49.724Z,14.20
2023-04-16T20:00:19.267Z,15.67
2023-04-16T20:02:48.527Z,14.90
2023-04-16T20:05:17.126Z,15.30
2023-04-16T20:07:45.130Z,14.03
2023-04-16T20:10:13.026Z,14.33
2023-04-16T20:12:40.919Z,16.03
2023-04-16T20:15:09.868Z,14.97
2023-04-16T20:17:38.126Z,16.17
2023-04-16T20:20:10.383Z,15.07
2023-04-16T20:22:40.325Z,17.77
2023-04-16T20:25:10.350Z,19.60
2023-04-16T20:27:39.019Z,21.33
2023-04-16T20:30:09.289Z,19.27
2023-04-16T20:32:37.912Z,20.43
2023-04-16T20:35:10.823Z,20.53
2023-04-16T20:37:43.966Z,21.43
2023-04-16T20:40:14.343Z,20.50
2023-04-16T20:42:46.531Z,21.40
2023-04-16T20:45:16.177Z,22.93
2023-04-16T20:47:44.606Z,20.30
2023-04-16T20:50:14.065Z,21.50
2023-04-16T20:52:42.473Z,23.13
2023-04-16T20:55:10.780Z,24.53
2023-04-16T20:57:39.111Z,23.07
2023-04-16T21:00:10.749Z,22.43
2023-04-16T21:02:39.336Z,24.13
2023-04-16T21:05:10.706Z,24.40
2023-04-16T21:07:38.608Z,26.13
2023-04-16T21:10:11.473Z,28.07
2023-04-16T21:12:39.459Z,27.87
2023-04-16T21:15:08.393Z,27.63
2023-04-16T21:17:36.491Z,26.63
2023-04-16T21:20:12.244Z,29.70
2023-04-16T21:22:40.785Z,29.30
2023-04-16T21:25:10.114Z,27.70
2023-04-16T21:27:38.014Z,27.90
2023-04-16T21:30:07.628Z,30.17
2023-04-16T21:32:35.415Z,27.00
2023-04-16T21:35:03.971Z,30.37
2023-04-16T21:37:31.969Z,30.27
2023-04-16T21:40:00.527Z,29.93
2023-04-16T21:42:29.290Z,30.80
2023-04-16T21:44:57.826Z,30.33
2023-04-16T21:47:26.737Z,32.10
2023-04-16T21:49:54.941Z,29.27
2023-04-16T21:52:22.972Z,29.77
2023-04-16T21:54:51.433Z,30.07
2023-04-16T21:57:19.192Z,31.80
2023-04-16T21:59:47.029Z,31.53
2023-04-16T22:02:15.045Z,29.77
2023-04-16T22:04:43.769Z,31.43
2023-04-16T22:07:12.012Z,30.20
2023-04-16T22:09:40.980Z,29.40
2023-04-16T22:12:11.745Z,30.33
2023-04-16T22:14:46.168Z,34.00
2023-04-16T22:17:23.886Z,34.03
2023-04-16T22:19:53.550Z,31.33
2023-04-16T22:22:22.212Z,34.17
2023-04-16T22:24:50.182Z,33.10
2023-04-16T22:27:18.293Z,29.90
2023-04-16T22:29:46.442Z,34.70
2023-04-16T22:32:14.580Z,31.40
2023-04-16T22:34:42.643Z,31.70
2023-04-16T22:37:10.981Z,32.93
2023-04-16T22:39:38.603Z,30.93
2023-04-16T22:42:06.336Z,32.43
2023-04-16T22:44:34.064Z,31.57
2023-04-16T22:47:01.912Z,32.73
2023-04-16T22:49:33.220Z,31.43
2023-04-16T22:52:01.255Z,31.83
2023-04-16T22:54:33.466Z,31.10
2023-04-16T22:57:01.448Z,31.87
2023-04-16T22:59:29.430Z,33.17
2023-04-16T23:01:57.506Z,34.40
2023-04-16T23:04:25.707Z,34.70
2023-04-16T23:06:53.409Z,33.00
2023-04-16T23:09:22.678Z,32.17
2023-04-16T23:11:50.446Z,33.90
2023-04-16T23:14:18.107Z,34.70
2023-04-16T23:16:45.749Z,34.30
2023-04-16T23:19:15.120Z,35.30
2023-04-16T23:21:43.015Z,33.20
2023-04-16T23:24:10.748Z,34.40
2023-04-16T23:26:38.530Z,31.67
2023-04-16T23:29:06.472Z,33.13
2023-04-16T23:31:34.395Z,33.20
2023-04-16T23:34:02.195Z,32.40
2023-04-16T23:36:31.282Z,33.03
2023-04-16T23:38:58.860Z,32.40
2023-04-16T23:41:26.615Z,33.53
2023-04-16T23:43:54.367Z,31.77
2023-04-16T23:46:22.196Z,32.70
2023-04-16T23:48:50.027Z,33.63
2023-04-16T23:51:17.884Z,33.27
2023-04-16T23:53:45.715Z,33.63
2023-04-16T23:56:15.481Z,33.40
2023-04-16T23:58:43.171Z,30.97
